Time,TemperatureF,DewpointF,PressureIn,WindDirection,WindDirectionDegrees,WindSpeedMPH,WindSpeedGustMPH,Humidity,HourlyPrecipIn,Conditions,Clouds,dailyrainin,SolarRadiationWatts/m^2,SoftwareType,DateUTC
2013-08-17 09:50:00,64.2,61.2,30.09,WSW,248,0.0,0.0,90,0.00,,,0.00,49,Wunderground v.1.15,2013-08-17 13:50:00,
2013-08-17 10:00:00,64.2,60.9,30.08,WSW,248,0.0,0.0,89,0.00,,,0.00,79,Wunderground v.1.15,2013-08-17 14:00:00,
2013-08-17 10:05:00,64.3,60.7,30.08,WSW,248,0.0,0.0,88,0.00,,,0.00,93,Wunderground v.1.15,2013-08-17 14:05:00,
2013-08-17 10:15:00,64.6,61.3,30.09,WSW,248,0.0,0.0,89,0.00,,,0.00,107,Wunderground v.1.15,2013-08-17 14:15:00,
2013-08-17 10:20:00,64.9,61.3,30.09,WSW,248,0.0,0.0,88,0.00,,,0.00,102,Wunderground v.1.15,2013-08-17 14:20:00,
2013-08-17 10:30:00,65.2,60.9,30.10,WSW,248,0.0,0.0,86,0.00,,,0.00,63,Wunderground v.1.15,2013-08-17 14:30:00,
2013-08-17 10:35:00,65.4,61.4,30.10,WSW,248,0.0,0.0,87,0.00,,,0.00,58,Wunderground v.1.15,2013-08-17 14:35:00,
2013-08-17 10:40:00,65.5,61.5,30.10,WSW,248,0.0,0.0,87,0.00,,,0.00,67,Wunderground v.1.15,2013-08-17 14:40:00,
2013-08-17 10:45:00,65.6,61.6,30.10,WSW,248,0.0,0.0,87,0.00,,,0.00,67,Wunderground v.1.15,2013-08-17 14:45:00,
2013-08-17 10:55:00,65.7,61.4,30.10,WSW,248,0.0,0.0,86,0.00,,,0.00,77,Wunderground v.1.15,2013-08-17 14:55:00,
2013-08-17 11:00:00,65.9,62.2,30.10,WSW,248,0.0,0.0,88,0.00,,,0.00,70,Wunderground v.1.15,2013-08-17 15:00:00,
2013-08-17 11:05:00,65.9,61.9,30.10,WSW,248,0.0,0.0,87,0.00,,,0.00,70,Wunderground v.1.15,2013-08-17 15:05:00,
2013-08-17 11:15:00,66.0,62.3,30.11,WSW,248,0.0,0.0,88,0.00,,,0.00,65,Wunderground v.1.15,2013-08-17 15:15:00,
2013-08-17 11:25:00,66.1,62.1,30.11,WSW,248,0.0,0.0,87,0.00,,,0.00,77,Wunderground v.1.15,2013-08-17 15:25:00,
2013-08-17 11:30:00,66.3,62.3,30.11,WSW,248,0.0,0.0,87,0.00,,,0.00,69,Wunderground v.1.15,2013-08-17 15:30:00,
2013-08-17 11:35:00,66.5,62.5,30.11,WSW,248,0.0,0.0,87,0.00,,,0.00,84,Wunderground v.1.15,2013-08-17 15:35:00,
2013-08-17 11:40:00,66.7,62.7,30.10,WSW,248,0.0,0.0,87,0.00,,,0.00,113,Wunderground v.1.15,2013-08-17 15:40:00,
2013-08-17 11:45:00,66.9,62.2,30.10,WSW,248,0.0,0.0,85,0.00,,,0.00,139,Wunderground v.1.15,2013-08-17 15:45:00,
2013-08-17 11:55:00,67.4,63.4,30.09,WSW,248,0.0,0.0,87,0.00,,,0.00,142,Wunderground v.1.15,2013-08-17 15:55:00,
2013-08-17 12:00:00,67.6,62.9,30.09,WSW,248,0.0,0.0,85,0.00,,,0.00,135,Wunderground v.1.15,2013-08-17 16:00:00,
2013-08-17 12:05:00,67.7,63.0,30.09,WSW,248,0.0,0.0,85,0.00,,,0.00,134,Wunderground v.1.15,2013-08-17 16:05:00,
2013-08-17 12:15:00,67.9,62.5,30.09,WSW,248,0.0,0.0,83,0.00,,,0.00,113,Wunderground v.1.15,2013-08-17 16:15:00,
2013-08-17 12:20:00,67.9,62.5,30.09,WSW,248,0.0,0.0,83,0.00,,,0.00,113,Wunderground v.1.15,2013-08-17 16:20:00,
2013-08-17 12:30:00,68.0,62.3,30.09,ESE,112,0.0,0.0,82,0.00,,,0.00,128,Wunderground v.1.15,2013-08-17 16:30:00,
2013-08-17 12:35:00,68.2,63.9,30.09,ESE,112,0.0,0.0,86,0.00,,,0.00,120,Wunderground v.1.15,2013-08-17 16:35:00,
2013-08-17 12:40:00,68.4,63.0,30.08,ESE,112,0.0,0.0,83,0.00,,,0.00,127,Wunderground v.1.15,2013-08-17 16:40:00,
2013-08-17 12:45:00,68.5,63.5,30.09,ESE,112,0.0,0.0,84,0.00,,,0.00,63,Wunderground v.1.15,2013-08-17 16:45:00,
2013-08-17 12:50:00,68.4,62.7,30.09,SE,125,0.0,0.0,82,0.00,,,0.00,62,Wunderground v.1.15,2013-08-17 16:50:00,
2013-08-17 12:55:00,68.2,62.8,30.08,SE,125,0.0,0.0,83,0.00,,,0.00,86,Wunderground v.1.15,2013-08-17 16:55:00,
2013-08-17 13:00:00,68.1,63.1,30.08,SE,125,0.0,0.0,84,0.00,,,0.00,84,Wunderground v.1.15,2013-08-17 17:00:00,
2013-08-17 13:10:00,68.0,62.6,30.09,SE,125,0.0,0.0,83,0.00,,,0.00,40,Wunderground v.1.15,2013-08-17 17:10:00,
2013-08-17 13:15:00,67.9,62.5,30.09,SE,125,0.0,0.0,83,0.00,,,0.00,32,Wunderground v.1.15,2013-08-17 17:15:00,
2013-08-17 13:20:00,67.7,62.3,30.09,SE,125,0.0,0.0,83,0.00,,,0.00,26,Wunderground v.1.15,2013-08-17 17:20:00,
2013-08-17 13:25:00,67.5,62.5,30.08,SE,125,0.0,0.0,84,0.00,,,0.00,19,Wunderground v.1.15,2013-08-17 17:25:00,
2013-08-17 13:30:00,67.2,61.9,30.08,SE,125,0.0,0.0,83,0.00,,,0.00,21,Wunderground v.1.15,2013-08-17 17:30:00,
2013-08-17 13:35:00,66.9,61.9,30.08,SE,125,0.0,0.0,84,0.00,,,0.00,19,Wunderground v.1.15,2013-08-17 17:35:00,
2013-08-17 13:45:00,66.7,62.4,30.08,SE,125,0.0,0.0,86,0.00,,,0.00,25,Wunderground v.1.15,2013-08-17 17:45:00,
2013-08-17 13:50:00,66.6,62.6,30.08,SE,125,0.0,0.0,87,0.00,,,0.00,19,Wunderground v.1.15,2013-08-17 17:50:00,
2013-08-17 13:55:00,66.4,62.1,30.08,SE,125,0.0,0.0,86,0.00,,,0.00,18,Wunderground v.1.15,2013-08-17 17:55:00,
2013-08-17 14:00:00,66.1,61.8,30.08,SE,125,0.0,0.0,86,0.00,,,0.00,16,Wunderground v.1.15,2013-08-17 18:00:00,
2013-08-17 14:05:00,65.8,62.1,30.08,SE,125,0.0,0.0,88,0.00,,,0.01,23,Wunderground v.1.15,2013-08-17 18:05:00,
2013-08-17 14:15:00,65.3,62.3,30.08,SE,125,0.0,0.0,90,0.10,,,0.03,39,Wunderground v.1.15,2013-08-17 18:15:00,
2013-08-17 14:20:00,65.0,62.3,30.07,SE,125,0.0,0.0,91,0.12,,,0.04,28,Wunderground v.1.15,2013-08-17 18:20:00,
2013-08-17 14:25:00,64.8,62.1,30.07,SE,125,0.0,0.0,91,0.08,,,0.04,25,Wunderground v.1.15,2013-08-17 18:25:00,
2013-08-17 14:30:00,64.7,62.3,30.07,SE,125,0.0,0.0,92,0.53,,,0.07,26,Wunderground v.1.15,2013-08-17 18:30:00,
2013-08-17 14:40:00,64.8,62.7,30.07,SE,125,0.0,0.0,93,0.10,,,0.09,37,Wunderground v.1.15,2013-08-17 18:40:00,
2013-08-17 14:45:00,64.9,62.8,30.07,SE,125,0.0,0.0,93,0.08,,,0.10,44,Wunderground v.1.15,2013-08-17 18:45:00,
2013-08-17 14:55:00,64.7,62.6,30.07,SE,125,0.0,0.0,93,0.05,,,0.11,47,Wunderground v.1.15,2013-08-17 18:55:00,
2013-08-17 15:00:00,64.6,62.5,30.07,SE,125,0.0,0.0,93,0.16,,,0.13,40,Wunderground v.1.15,2013-08-17 19:00:00,
2013-08-17 15:05:00,64.7,62.9,30.07,SE,125,0.0,0.0,94,0.10,,,0.13,30,Wunderground v.1.15,2013-08-17 19:05:00,
2013-08-17 15:15:00,64.7,62.9,30.07,SE,125,0.0,0.0,94,0.04,,,0.13,30,Wunderground v.1.15,2013-08-17 19:15:00,
2013-08-17 15:20:00,64.7,62.9,30.07,SE,125,0.0,0.0,94,0.00,,,0.13,32,Wunderground v.1.15,2013-08-17 19:20:00,
2013-08-17 15:30:00,64.5,62.7,30.06,SE,125,0.0,0.0,94,0.00,,,0.13,16,Wunderground v.1.15,2013-08-17 19:30:00,
2013-08-17 15:35:00,64.4,62.6,30.06,SE,125,0.0,0.0,94,0.00,,,0.13,23,Wunderground v.1.15,2013-08-17 19:35:00,
2013-08-17 15:40:00,64.3,62.5,30.06,ESE,117,0.0,0.0,94,0.00,,,0.13,25,Wunderground v.1.15,2013-08-17 19:40:00,
2013-08-17 15:45:00,64.4,62.6,30.06,ESE,117,0.0,0.0,94,0.00,,,0.13,25,Wunderground v.1.15,2013-08-17 19:45:00,
2013-08-17 15:50:00,64.3,62.5,30.06,ESE,117,0.0,0.0,94,0.00,,,0.13,16,Wunderground v.1.15,2013-08-17 19:50:00,
2013-08-17 15:55:00,64.3,62.5,30.06,ESE,117,0.0,0.0,94,0.00,,,0.13,11,Wunderground v.1.15,2013-08-17 19:55:00,
2013-08-17 16:00:00,64.2,62.4,30.06,ESE,117,0.0,0.0,94,0.00,,,0.13,9,Wunderground v.1.15,2013-08-17 20:00:00,
2013-08-17 16:10:00,64.2,62.7,30.06,ESE,117,0.0,0.0,95,0.00,,,0.13,12,Wunderground v.1.15,2013-08-17 20:10:00,
2013-08-17 16:15:00,64.3,62.8,30.05,ESE,117,0.0,0.0,95,0.00,,,0.13,16,Wunderground v.1.15,2013-08-17 20:15:00,
2013-08-17 16:20:00,64.4,62.9,30.05,ESE,117,0.0,0.0,95,0.00,,,0.14,18,Wunderground v.1.15,2013-08-17 20:20:00,
2013-08-17 16:25:00,64.4,62.9,30.06,ESE,117,0.0,0.0,95,0.22,,,0.16,12,Wunderground v.1.15,2013-08-17 20:25:00,
2013-08-17 16:30:00,64.5,63.0,30.06,ESE,117,0.0,0.0,95,0.09,,,0.16,12,Wunderground v.1.15,2013-08-17 20:30:00,
2013-08-17 16:35:00,64.5,63.0,30.05,ESE,117,0.0,0.0,95,0.06,,,0.17,21,Wunderground v.1.15,2013-08-17 20:35:00,
2013-08-17 16:45:00,64.4,62.9,30.05,ESE,117,0.0,0.0,95,0.24,,,0.23,26,Wunderground v.1.15,2013-08-17 20:45:00,
2013-08-17 16:50:00,64.3,62.8,30.05,ESE,117,0.0,0.0,95,0.17,,,0.25,21,Wunderground v.1.15,2013-08-17 20:50:00,
2013-08-17 16:55:00,64.1,62.6,30.05,ESE,117,0.0,0.0,95,0.17,,,0.26,12,Wunderground v.1.15,2013-08-17 20:55:00,
2013-08-17 17:00:00,64.1,62.6,30.06,ESE,117,0.0,0.0,95,0.79,,,0.29,14,Wunderground v.1.15,2013-08-17 21:00:00,
2013-08-17 17:05:00,64.0,62.5,30.05,ESE,117,0.0,0.0,95,0.37,,,0.32,12,Wunderground v.1.15,2013-08-17 21:05:00,
2013-08-17 17:15:00,64.0,62.5,30.05,ESE,117,0.0,0.0,95,0.13,,,0.34,14,Wunderground v.1.15,2013-08-17 21:15:00,
2013-08-17 17:20:00,64.0,62.5,30.06,ESE,117,0.0,0.0,95,0.06,,,0.34,7,Wunderground v.1.15,2013-08-17 21:20:00,
2013-08-17 17:25:00,64.0,62.5,30.06,ESE,117,0.0,0.0,95,0.04,,,0.34,5,Wunderground v.1.15,2013-08-17 21:25:00,
2013-08-17 17:30:00,64.0,62.5,30.07,ESE,117,0.0,0.0,95,0.00,,,0.34,5,Wunderground v.1.15,2013-08-17 21:30:00,
2013-08-17 17:35:00,64.0,62.5,30.06,ESE,117,0.0,0.0,95,0.00,,,0.34,7,Wunderground v.1.15,2013-08-17 21:35:00,
2013-08-17 17:40:00,64.1,62.6,30.06,ESE,117,0.0,0.0,95,0.00,,,0.34,7,Wunderground v.1.15,2013-08-17 21:40:00,
2013-08-17 17:45:00,64.1,62.6,30.06,ESE,117,0.0,0.0,95,0.00,,,0.34,0,Wunderground v.1.15,2013-08-17 21:45:00,
2013-08-17 17:55:00,64.2,62.7,30.06,ESE,117,0.0,0.0,95,0.00,,,0.35,9,Wunderground v.1.15,2013-08-17 21:55:00,
2013-08-17 18:00:00,64.2,63.0,30.06,ESE,117,0.0,0.0,96,0.00,,,0.35,11,Wunderground v.1.15,2013-08-17 22:00:00,
2013-08-17 18:05:00,64.3,63.1,30.06,ESE,117,0.0,0.0,96,0.00,,,0.35,11,Wunderground v.1.15,2013-08-17 22:05:00,
2013-08-17 18:15:00,64.4,63.2,30.06,ESE,117,0.0,0.0,96,0.00,,,0.35,12,Wunderground v.1.15,2013-08-17 22:15:00,
2013-08-17 18:20:00,64.4,63.2,30.06,ESE,117,0.0,0.0,96,0.00,,,0.35,12,Wunderground v.1.15,2013-08-17 22:20:00,
2013-08-17 18:25:00,64.4,63.2,30.07,ESE,117,0.0,0.0,96,0.00,,,0.35,9,Wunderground v.1.15,2013-08-17 22:25:00,
2013-08-17 18:35:00,64.4,63.2,30.07,ESE,117,0.0,0.0,96,0.00,,,0.35,7,Wunderground v.1.15,2013-08-17 22:35:00,
2013-08-17 18:45:00,64.4,63.2,30.06,ESE,117,0.0,0.0,96,0.00,,,0.35,11,Wunderground v.1.15,2013-08-17 22:45:00,
2013-08-17 18:50:00,64.5,63.3,30.07,ESE,117,0.0,0.0,96,0.00,,,0.35,7,Wunderground v.1.15,2013-08-17 22:50:00,
2013-08-17 18:55:00,64.5,63.3,30.06,ESE,117,0.0,0.0,96,0.00,,,0.35,9,Wunderground v.1.15,2013-08-17 22:55:00,
2013-08-17 19:00:00,64.5,63.3,30.06,ESE,117,0.0,0.0,96,0.00,,,0.35,7,Wunderground v.1.15,2013-08-17 23:00:00,
2013-08-17 19:05:00,64.6,63.4,30.06,ESE,117,0.0,0.0,96,0.00,,,0.35,5,Wunderground v.1.15,2013-08-17 23:05:00,
2013-08-17 19:15:00,64.6,63.4,30.06,ESE,117,0.0,0.0,96,0.00,,,0.35,7,Wunderground v.1.15,2013-08-17 23:15:00,
2013-08-17 19:25:00,64.5,63.3,30.06,ESE,117,0.0,0.0,96,0.00,,,0.35,0,Wunderground v.1.15,2013-08-17 23:25:00,
2013-08-17 19:30:00,64.3,63.1,30.07,ESE,117,0.0,0.0,96,0.00,,,0.35,0,Wunderground v.1.15,2013-08-17 23:30:00,
2013-08-17 19:35:00,64.2,63.0,30.07,ESE,117,0.0,0.0,96,0.00,,,0.35,0,Wunderground v.1.15,2013-08-17 23:35:00,
2013-08-17 19:40:00,64.2,63.0,30.06,ESE,117,0.0,0.0,96,0.00,,,0.35,0,Wunderground v.1.15,2013-08-17 23:40:00,
2013-08-17 19:45:00,64.1,62.9,30.07,ESE,117,0.0,0.0,96,0.00,,,0.35,0,Wunderground v.1.15,2013-08-17 23:45:00,
2013-08-17 19:50:00,64.0,62.8,30.07,ESE,117,0.0,0.0,96,0.00,,,0.35,0,Wunderground v.1.15,2013-08-17 23:50:00,
2013-08-17 19:55:00,63.9,62.7,30.07,ESE,117,0.0,0.0,96,0.00,,,0.35,0,Wunderground v.1.15,2013-08-17 23:55:00,